Terminal Aerodrome Forecast
Issued by NWS Sterling, VA

Current Version | Previous Version | Text Only | Print | Product List | Glossary Off
Versions: 1 2 3 4 5 6 7 8 9 10 11 12 13 14 15 16 17 18 19 20 21 22 23 24 25 26

000
FTUS41 KLWX 150538
TAFIAD
TAF
KIAD 150538Z 1506/1612 18008KT 5SM BR OVC070 WS020/25035KT
     FM151000 20006KT P6SM BKN200
     FM151400 21010G17KT P6SM BKN200
     FM160600 22012KT 6SM -SHRA BKN050=

USA.gov is the U.S. government's official web portal to all federal, state and local government web resources and services.